Accueil
METAR-TAF:

METAR-TAF

Aéroports :

Monte Scuro, Italie

latitude: 39-20N, longitude: 016-24E, altitude: 1710 m

Observation

Le bulletin a été fait il y a 44 minutes, à 13:55 UTC
Vent 8 kt de ouest/nord-ouest
Température 4°C
Humidité 100%
Pression 1016 hPa
Visibilité inférieure à 50 m
brouillard

METAR: LIBQ 261355Z 29008KT 0000 FG VV/// 04/04 Q1016 RMK MON INVIS VAL INVIS VIS MIN 0000

Heure: 15:39 (14:39 UTC)


TAF: absent

Observations et prévisions météorologiques de plus de 4000 aéroports (messages METAR et TAF).

Les stations disponibles sont représentées par des disques jaunes et rouges sur la carte.

Passer la souris dessus pour voir le nom de la station.

Cliquer dessus pour voir les observations et prévisions météorologiques.

Pour changer de carte: cliquez sur les boutons verts avec une croix noire pour zoomer, sur le bouton vert avec un tiret pour effectuer un zoom arrière, ou sur les flèches vertes pour les cartes adjacentes.


METAR-TAF: